sensor_id;sensor_type;location;lat;lon;timestamp;temperature;humidity
9768;DHT22;4923;52.520;13.494;2023-12-07T00:01:19;2.60;99.90
9768;DHT22;4923;52.520;13.494;2023-12-07T00:04:06;2.50;99.90
9768;DHT22;4923;52.520;13.494;2023-12-07T00:06:53;2.50;99.90
9768;DHT22;4923;52.520;13.494;2023-12-07T00:09:40;2.60;99.90
9768;DHT22;4923;52.520;13.494;2023-12-07T00:12:26;2.50;99.90
9768;DHT22;4923;52.520;13.494;2023-12-07T00:15:15;2.50;99.90
9768;DHT22;4923;52.520;13.494;2023-12-07T00:18:02;2.50;1.00
9768;DHT22;4923;52.520;13.494;2023-12-07T00:20:49;2.50;99.90
9768;DHT22;4923;52.520;13.494;2023-12-07T00:23:36;2.50;99.90
9768;DHT22;4923;52.520;13.494;2023-12-07T00:26:23;2.50;99.90
9768;DHT22;4923;52.520;13.494;2023-12-07T00:29:10;2.50;99.90
9768;DHT22;4923;52.520;13.494;2023-12-07T00:31:58;2.50;99.90
9768;DHT22;4923;52.520;13.494;2023-12-07T00:34:45;2.40;99.90
9768;DHT22;4923;52.520;13.494;2023-12-07T00:37:32;2.50;99.90
9768;DHT22;4923;52.520;13.494;2023-12-07T00:40:19;2.50;99.90
9768;DHT22;4923;52.520;13.494;2023-12-07T00:43:06;2.50;99.90
9768;DHT22;4923;52.520;13.494;2023-12-07T00:45:53;2.40;99.90
9768;DHT22;4923;52.520;13.494;2023-12-07T00:48:41;2.40;99.90
9768;DHT22;4923;52.520;13.494;2023-12-07T00:51:28;2.40;99.90
9768;DHT22;4923;52.520;13.494;2023-12-07T00:54:15;2.40;99.90
9768;DHT22;4923;52.520;13.494;2023-12-07T00:57:02;2.40;99.90
9768;DHT22;4923;52.520;13.494;2023-12-07T00:59:49;2.40;99.90
9768;DHT22;4923;52.520;13.494;2023-12-07T01:02:36;2.40;99.90
9768;DHT22;4923;52.520;13.494;2023-12-07T01:05:24;2.40;99.90
9768;DHT22;4923;52.520;13.494;2023-12-07T01:08:11;2.40;99.90
9768;DHT22;4923;52.520;13.494;2023-12-07T01:10:58;2.40;99.90
9768;DHT22;4923;52.520;13.494;2023-12-07T01:13:45;2.40;99.90
9768;DHT22;4923;52.520;13.494;2023-12-07T01:16:32;2.40;99.90
9768;DHT22;4923;52.520;13.494;2023-12-07T01:19:19;2.40;99.90
9768;DHT22;4923;52.520;13.494;2023-12-07T01:22:07;2.50;99.90
9768;DHT22;4923;52.520;13.494;2023-12-07T01:24:54;2.50;99.90
9768;DHT22;4923;52.520;13.494;2023-12-07T01:27:40;2.40;99.90
9768;DHT22;4923;52.520;13.494;2023-12-07T01:30:27;2.40;99.90
9768;DHT22;4923;52.520;13.494;2023-12-07T01:33:14;2.40;99.90
9768;DHT22;4923;52.520;13.494;2023-12-07T01:36:01;2.40;99.90
9768;DHT22;4923;52.520;13.494;2023-12-07T01:38:49;2.40;99.90
9768;DHT22;4923;52.520;13.494;2023-12-07T01:41:36;2.40;99.90
9768;DHT22;4923;52.520;13.494;2023-12-07T01:44:23;2.40;99.90
9768;DHT22;4923;52.520;13.494;2023-12-07T01:47:09;2.40;99.90
9768;DHT22;4923;52.520;13.494;2023-12-07T01:49:56;2.40;99.90
9768;DHT22;4923;52.520;13.494;2023-12-07T01:52:45;2.40;99.90
9768;DHT22;4923;52.520;13.494;2023-12-07T01:55:35;2.40;99.90
9768;DHT22;4923;52.520;13.494;2023-12-07T01:58:23;2.40;99.90
9768;DHT22;4923;52.520;13.494;2023-12-07T02:01:10;2.50;99.90
9768;DHT22;4923;52.520;13.494;2023-12-07T02:03:58;2.40;99.90
9768;DHT22;4923;52.520;13.494;2023-12-07T02:06:44;2.50;99.90
9768;DHT22;4923;52.520;13.494;2023-12-07T02:09:31;2.50;99.90
9768;DHT22;4923;52.520;13.494;2023-12-07T02:12:20;2.50;99.90
9768;DHT22;4923;52.520;13.494;2023-12-07T02:15:07;2.50;99.90
9768;DHT22;4923;52.520;13.494;2023-12-07T02:18:02;2.40;99.90
9768;DHT22;4923;52.520;13.494;2023-12-07T02:20:55;2.50;99.90
9768;DHT22;4923;52.520;13.494;2023-12-07T02:23:47;2.50;99.90
9768;DHT22;4923;52.520;13.494;2023-12-07T02:26:35;2.50;99.90
9768;DHT22;4923;52.520;13.494;2023-12-07T02:29:23;2.50;1.00
9768;DHT22;4923;52.520;13.494;2023-12-07T02:32:09;2.50;99.90
9768;DHT22;4923;52.520;13.494;2023-12-07T02:34:56;2.50;99.90
9768;DHT22;4923;52.520;13.494;2023-12-07T02:37:45;2.50;99.90
9768;DHT22;4923;52.520;13.494;2023-12-07T02:40:34;2.60;99.90
9768;DHT22;4923;52.520;13.494;2023-12-07T02:43:23;2.60;99.90
9768;DHT22;4923;52.520;13.494;2023-12-07T02:46:10;2.60;99.90
9768;DHT22;4923;52.520;13.494;2023-12-07T02:48:57;2.60;99.90
9768;DHT22;4923;52.520;13.494;2023-12-07T02:51:44;2.50;99.90
9768;DHT22;4923;52.520;13.494;2023-12-07T02:54:31;2.60;99.90
9768;DHT22;4923;52.520;13.494;2023-12-07T02:57:17;2.60;99.90
9768;DHT22;4923;52.520;13.494;2023-12-07T03:00:07;2.60;99.90
9768;DHT22;4923;52.520;13.494;2023-12-07T03:02:54;2.60;99.90
9768;DHT22;4923;52.520;13.494;2023-12-07T03:05:40;2.50;99.90
9768;DHT22;4923;52.520;13.494;2023-12-07T03:08:27;2.50;99.90
9768;DHT22;4923;52.520;13.494;2023-12-07T03:11:14;2.50;99.90
9768;DHT22;4923;52.520;13.494;2023-12-07T03:14:01;2.50;99.90
9768;DHT22;4923;52.520;13.494;2023-12-07T03:16:49;2.50;99.90
9768;DHT22;4923;52.520;13.494;2023-12-07T03:19:37;2.50;99.90
9768;DHT22;4923;52.520;13.494;2023-12-07T03:22:24;2.60;99.90
9768;DHT22;4923;52.520;13.494;2023-12-07T03:25:11;2.50;99.90
9768;DHT22;4923;52.520;13.494;2023-12-07T03:27:58;2.60;99.90
9768;DHT22;4923;52.520;13.494;2023-12-07T03:30:45;2.60;99.90
9768;DHT22;4923;52.520;13.494;2023-12-07T03:33:33;2.60;99.90
9768;DHT22;4923;52.520;13.494;2023-12-07T03:36:20;2.60;99.90
9768;DHT22;4923;52.520;13.494;2023-12-07T03:39:07;2.60;99.90
9768;DHT22;4923;52.520;13.494;2023-12-07T03:41:55;2.50;99.90
9768;DHT22;4923;52.520;13.494;2023-12-07T03:44:42;2.60;99.90
9768;DHT22;4923;52.520;13.494;2023-12-07T03:47:29;2.60;99.90
9768;DHT22;4923;52.520;13.494;2023-12-07T03:50:17;2.70;99.90
9768;DHT22;4923;52.520;13.494;2023-12-07T03:53:04;2.80;99.90
9768;DHT22;4923;52.520;13.494;2023-12-07T03:55:52;2.70;99.90
9768;DHT22;4923;52.520;13.494;2023-12-07T03:58:39;2.70;99.90
9768;DHT22;4923;52.520;13.494;2023-12-07T04:01:27;2.70;99.90
9768;DHT22;4923;52.520;13.494;2023-12-07T04:04:14;2.70;99.90
9768;DHT22;4923;52.520;13.494;2023-12-07T04:07:02;2.70;99.90
9768;DHT22;4923;52.520;13.494;2023-12-07T04:09:49;2.80;99.90
9768;DHT22;4923;52.520;13.494;2023-12-07T04:12:36;2.70;99.90
9768;DHT22;4923;52.520;13.494;2023-12-07T04:15:23;2.80;99.90
9768;DHT22;4923;52.520;13.494;2023-12-07T04:18:10;2.70;99.90
9768;DHT22;4923;52.520;13.494;2023-12-07T04:20:57;2.70;99.90
9768;DHT22;4923;52.520;13.494;2023-12-07T04:23:45;2.80;99.90
9768;DHT22;4923;52.520;13.494;2023-12-07T04:26:31;2.80;99.90
9768;DHT22;4923;52.520;13.494;2023-12-07T04:29:18;2.80;99.90
9768;DHT22;4923;52.520;13.494;2023-12-07T04:32:06;2.80;99.90
9768;DHT22;4923;52.520;13.494;2023-12-07T04:34:53;2.80;99.90
9768;DHT22;4923;52.520;13.494;2023-12-07T04:37:41;2.80;99.90
9768;DHT22;4923;52.520;13.494;2023-12-07T04:40:29;2.60;99.90
9768;DHT22;4923;52.520;13.494;2023-12-07T04:43:16;2.70;99.90
9768;DHT22;4923;52.520;13.494;2023-12-07T04:46:03;2.60;99.90
9768;DHT22;4923;52.520;13.494;2023-12-07T04:48:50;2.50;99.90
9768;DHT22;4923;52.520;13.494;2023-12-07T04:51:37;2.40;99.90
9768;DHT22;4923;52.520;13.494;2023-12-07T04:54:24;2.40;99.90
9768;DHT22;4923;52.520;13.494;2023-12-07T04:57:13;2.50;99.90
9768;DHT22;4923;52.520;13.494;2023-12-07T05:00:00;2.40;99.90
9768;DHT22;4923;52.520;13.494;2023-12-07T05:02:51;2.40;99.90
9768;DHT22;4923;52.520;13.494;2023-12-07T05:05:38;2.50;99.90
9768;DHT22;4923;52.520;13.494;2023-12-07T05:08:25;2.50;99.90
9768;DHT22;4923;52.520;13.494;2023-12-07T05:11:12;2.50;99.90
9768;DHT22;4923;52.520;13.494;2023-12-07T05:14:00;2.40;99.90
9768;DHT22;4923;52.520;13.494;2023-12-07T05:16:47;2.50;99.90
9768;DHT22;4923;52.520;13.494;2023-12-07T05:19:38;2.50;99.90
9768;DHT22;4923;52.520;13.494;2023-12-07T05:22:25;2.60;99.90
9768;DHT22;4923;52.520;13.494;2023-12-07T05:25:11;2.50;99.90
9768;DHT22;4923;52.520;13.494;2023-12-07T05:27:58;2.60;99.90
9768;DHT22;4923;52.520;13.494;2023-12-07T05:30:47;2.60;99.90
9768;DHT22;4923;52.520;13.494;2023-12-07T05:33:34;2.60;99.90
9768;DHT22;4923;52.520;13.494;2023-12-07T05:36:20;2.60;99.90
9768;DHT22;4923;52.520;13.494;2023-12-07T05:39:07;2.50;99.90
9768;DHT22;4923;52.520;13.494;2023-12-07T05:41:54;2.50;99.90
9768;DHT22;4923;52.520;13.494;2023-12-07T05:44:41;2.60;99.90
9768;DHT22;4923;52.520;13.494;2023-12-07T05:47:29;2.60;99.90
9768;DHT22;4923;52.520;13.494;2023-12-07T05:50:16;2.60;99.90
9768;DHT22;4923;52.520;13.494;2023-12-07T05:53:03;2.70;99.90
9768;DHT22;4923;52.520;13.494;2023-12-07T05:55:50;2.70;99.90
9768;DHT22;4923;52.520;13.494;2023-12-07T05:58:37;2.70;99.90
9768;DHT22;4923;52.520;13.494;2023-12-07T06:01:24;2.70;99.90
9768;DHT22;4923;52.520;13.494;2023-12-07T06:04:12;2.80;99.90
9768;DHT22;4923;52.520;13.494;2023-12-07T06:06:59;2.80;99.90
9768;DHT22;4923;52.520;13.494;2023-12-07T06:09:46;2.80;99.90
9768;DHT22;4923;52.520;13.494;2023-12-07T06:12:32;2.80;99.90
9768;DHT22;4923;52.520;13.494;2023-12-07T06:15:19;2.80;99.90
9768;DHT22;4923;52.520;13.494;2023-12-07T06:18:06;2.80;99.90
9768;DHT22;4923;52.520;13.494;2023-12-07T06:20:55;2.70;99.90
9768;DHT22;4923;52.520;13.494;2023-12-07T06:23:41;2.80;99.90
9768;DHT22;4923;52.520;13.494;2023-12-07T06:26:28;2.80;99.90
9768;DHT22;4923;52.520;13.494;2023-12-07T06:29:15;2.80;99.90
9768;DHT22;4923;52.520;13.494;2023-12-07T06:32:02;2.80;99.90
9768;DHT22;4923;52.520;13.494;2023-12-07T06:34:49;2.80;99.90
9768;DHT22;4923;52.520;13.494;2023-12-07T06:37:37;2.80;99.90
9768;DHT22;4923;52.520;13.494;2023-12-07T06:40:25;2.90;99.90
9768;DHT22;4923;52.520;13.494;2023-12-07T06:43:12;2.80;99.90
9768;DHT22;4923;52.520;13.494;2023-12-07T06:45:59;2.80;99.90
9768;DHT22;4923;52.520;13.494;2023-12-07T06:48:46;2.80;99.90
9768;DHT22;4923;52.520;13.494;2023-12-07T06:51:33;2.80;99.90
9768;DHT22;4923;52.520;13.494;2023-12-07T06:54:21;2.80;99.90
9768;DHT22;4923;52.520;13.494;2023-12-07T06:57:08;2.90;99.90
9768;DHT22;4923;52.520;13.494;2023-12-07T06:59:55;2.90;99.90
9768;DHT22;4923;52.520;13.494;2023-12-07T07:02:42;2.90;99.90
9768;DHT22;4923;52.520;13.494;2023-12-07T07:05:29;3.00;99.90
9768;DHT22;4923;52.520;13.494;2023-12-07T07:08:16;3.00;99.90
9768;DHT22;4923;52.520;13.494;2023-12-07T07:11:11;3.10;99.90
9768;DHT22;4923;52.520;13.494;2023-12-07T07:13:59;3.00;99.90
9768;DHT22;4923;52.520;13.494;2023-12-07T07:16:46;3.00;99.90
9768;DHT22;4923;52.520;13.494;2023-12-07T07:19:32;3.10;99.90
9768;DHT22;4923;52.520;13.494;2023-12-07T07:22:19;3.10;99.90
9768;DHT22;4923;52.520;13.494;2023-12-07T07:25:07;3.10;99.90
9768;DHT22;4923;52.520;13.494;2023-12-07T07:27:55;3.10;99.90
9768;DHT22;4923;52.520;13.494;2023-12-07T07:30:42;3.10;99.90
9768;DHT22;4923;52.520;13.494;2023-12-07T07:33:29;3.10;99.90
9768;DHT22;4923;52.520;13.494;2023-12-07T07:36:15;3.10;99.90
9768;DHT22;4923;52.520;13.494;2023-12-07T07:39:02;3.10;99.90
9768;DHT22;4923;52.520;13.494;2023-12-07T07:41:50;3.20;99.90
9768;DHT22;4923;52.520;13.494;2023-12-07T07:44:38;3.20;99.90
9768;DHT22;4923;52.520;13.494;2023-12-07T07:47:25;3.20;99.90
9768;DHT22;4923;52.520;13.494;2023-12-07T07:50:12;3.30;99.90
9768;DHT22;4923;52.520;13.494;2023-12-07T07:52:59;3.20;99.90
9768;DHT22;4923;52.520;13.494;2023-12-07T07:55:47;3.20;99.90
9768;DHT22;4923;52.520;13.494;2023-12-07T07:58:34;3.20;99.90
9768;DHT22;4923;52.520;13.494;2023-12-07T08:01:22;3.20;99.90
9768;DHT22;4923;52.520;13.494;2023-12-07T08:04:09;3.30;99.90
9768;DHT22;4923;52.520;13.494;2023-12-07T08:06:57;3.30;99.90
9768;DHT22;4923;52.520;13.494;2023-12-07T08:09:44;3.30;99.90
9768;DHT22;4923;52.520;13.494;2023-12-07T08:12:33;3.30;99.90
9768;DHT22;4923;52.520;13.494;2023-12-07T08:15:20;3.30;99.90
9768;DHT22;4923;52.520;13.494;2023-12-07T08:18:08;3.30;99.90
9768;DHT22;4923;52.520;13.494;2023-12-07T08:20:56;3.40;99.90
9768;DHT22;4923;52.520;13.494;2023-12-07T08:23:43;3.30;99.90
9768;DHT22;4923;52.520;13.494;2023-12-07T08:26:30;3.30;99.90
9768;DHT22;4923;52.520;13.494;2023-12-07T08:29:17;3.30;99.90
9768;DHT22;4923;52.520;13.494;2023-12-07T08:32:04;3.30;99.90
9768;DHT22;4923;52.520;13.494;2023-12-07T08:34:53;3.40;99.90
9768;DHT22;4923;52.520;13.494;2023-12-07T08:37:40;3.40;99.90
9768;DHT22;4923;52.520;13.494;2023-12-07T08:40:27;3.40;99.90
9768;DHT22;4923;52.520;13.494;2023-12-07T08:43:14;3.40;99.90
9768;DHT22;4923;52.520;13.494;2023-12-07T08:46:00;3.40;99.90
9768;DHT22;4923;52.520;13.494;2023-12-07T08:48:47;3.40;99.90
9768;DHT22;4923;52.520;13.494;2023-12-07T08:51:36;3.40;99.90
9768;DHT22;4923;52.520;13.494;2023-12-07T08:54:22;3.40;99.90
9768;DHT22;4923;52.520;13.494;2023-12-07T08:57:09;3.50;99.90
9768;DHT22;4923;52.520;13.494;2023-12-07T08:59:56;3.60;99.90
9768;DHT22;4923;52.520;13.494;2023-12-07T09:02:44;3.70;99.90
9768;DHT22;4923;52.520;13.494;2023-12-07T09:05:31;3.70;99.90
9768;DHT22;4923;52.520;13.494;2023-12-07T09:08:19;3.70;99.90
9768;DHT22;4923;52.520;13.494;2023-12-07T09:11:06;3.70;99.90
9768;DHT22;4923;52.520;13.494;2023-12-07T09:13:52;3.70;99.90
9768;DHT22;4923;52.520;13.494;2023-12-07T09:16:43;3.70;99.90
9768;DHT22;4923;52.520;13.494;2023-12-07T09:19:30;3.70;99.90
9768;DHT22;4923;52.520;13.494;2023-12-07T09:22:17;3.70;99.90
9768;DHT22;4923;52.520;13.494;2023-12-07T09:25:06;3.70;99.90
9768;DHT22;4923;52.520;13.494;2023-12-07T09:27:53;3.80;99.90
9768;DHT22;4923;52.520;13.494;2023-12-07T09:30:40;3.90;99.90
9768;DHT22;4923;52.520;13.494;2023-12-07T09:33:27;4.00;99.90
9768;DHT22;4923;52.520;13.494;2023-12-07T09:36:16;4.00;99.90
9768;DHT22;4923;52.520;13.494;2023-12-07T09:39:04;4.10;99.90
9768;DHT22;4923;52.520;13.494;2023-12-07T09:41:52;4.10;99.90
9768;DHT22;4923;52.520;13.494;2023-12-07T09:44:40;4.10;99.90
9768;DHT22;4923;52.520;13.494;2023-12-07T09:47:27;4.10;99.90
9768;DHT22;4923;52.520;13.494;2023-12-07T09:50:16;4.10;99.90
9768;DHT22;4923;52.520;13.494;2023-12-07T09:53:03;4.00;99.90
9768;DHT22;4923;52.520;13.494;2023-12-07T09:55:50;4.00;99.90
9768;DHT22;4923;52.520;13.494;2023-12-07T09:58:39;4.00;99.90
9768;DHT22;4923;52.520;13.494;2023-12-07T10:01:28;4.00;99.90
9768;DHT22;4923;52.520;13.494;2023-12-07T10:04:18;3.90;99.90
9768;DHT22;4923;52.520;13.494;2023-12-07T10:07:05;3.70;99.90
9768;DHT22;4923;52.520;13.494;2023-12-07T10:09:54;3.70;99.90
9768;DHT22;4923;52.520;13.494;2023-12-07T10:12:46;3.70;99.90
9768;DHT22;4923;52.520;13.494;2023-12-07T10:15:35;3.70;99.90
9768;DHT22;4923;52.520;13.494;2023-12-07T10:18:23;3.70;99.90
9768;DHT22;4923;52.520;13.494;2023-12-07T10:21:10;3.70;99.90
9768;DHT22;4923;52.520;13.494;2023-12-07T10:23:57;3.60;99.90
9768;DHT22;4923;52.520;13.494;2023-12-07T10:26:44;3.50;99.90
9768;DHT22;4923;52.520;13.494;2023-12-07T10:29:35;3.70;99.90
9768;DHT22;4923;52.520;13.494;2023-12-07T10:32:23;3.60;99.90
9768;DHT22;4923;52.520;13.494;2023-12-07T10:35:10;3.70;99.90
9768;DHT22;4923;52.520;13.494;2023-12-07T10:37:57;3.90;99.90
9768;DHT22;4923;52.520;13.494;2023-12-07T10:40:45;3.90;99.90
9768;DHT22;4923;52.520;13.494;2023-12-07T10:43:36;3.60;99.90
9768;DHT22;4923;52.520;13.494;2023-12-07T10:46:25;3.40;99.90
9768;DHT22;4923;52.520;13.494;2023-12-07T10:49:17;3.30;99.90
9768;DHT22;4923;52.520;13.494;2023-12-07T10:52:07;3.40;99.90
9768;DHT22;4923;52.520;13.494;2023-12-07T10:55:00;3.50;99.90
9768;DHT22;4923;52.520;13.494;2023-12-07T10:57:48;3.40;99.90
9768;DHT22;4923;52.520;13.494;2023-12-07T11:00:38;3.40;99.90
9768;DHT22;4923;52.520;13.494;2023-12-07T11:03:27;3.30;99.90
9768;DHT22;4923;52.520;13.494;2023-12-07T11:06:18;3.40;99.90
9768;DHT22;4923;52.520;13.494;2023-12-07T11:09:07;3.40;99.90
9768;DHT22;4923;52.520;13.494;2023-12-07T11:11:58;3.50;99.90
9768;DHT22;4923;52.520;13.494;2023-12-07T11:14:46;3.70;99.90
9768;DHT22;4923;52.520;13.494;2023-12-07T11:17:48;3.90;99.90
9768;DHT22;4923;52.520;13.494;2023-12-07T11:20:43;4.00;99.90
9768;DHT22;4923;52.520;13.494;2023-12-07T11:23:32;4.30;99.90
9768;DHT22;4923;52.520;13.494;2023-12-07T11:26:20;4.40;99.90
9768;DHT22;4923;52.520;13.494;2023-12-07T11:29:07;4.50;99.90
9768;DHT22;4923;52.520;13.494;2023-12-07T11:31:55;4.60;99.90
9768;DHT22;4923;52.520;13.494;2023-12-07T11:34:43;4.60;99.90
9768;DHT22;4923;52.520;13.494;2023-12-07T11:38:01;4.70;99.90
9768;DHT22;4923;52.520;13.494;2023-12-07T11:40:50;4.70;99.90
9768;DHT22;4923;52.520;13.494;2023-12-07T11:43:41;4.70;99.90
9768;DHT22;4923;52.520;13.494;2023-12-07T11:46:29;4.70;99.90
9768;DHT22;4923;52.520;13.494;2023-12-07T11:49:16;4.70;99.90
9768;DHT22;4923;52.520;13.494;2023-12-07T11:52:13;4.60;99.90
9768;DHT22;4923;52.520;13.494;2023-12-07T11:55:00;4.60;99.90
9768;DHT22;4923;52.520;13.494;2023-12-07T11:57:50;4.50;99.90
9768;DHT22;4923;52.520;13.494;2023-12-07T12:00:37;4.50;99.90
9768;DHT22;4923;52.520;13.494;2023-12-07T12:03:24;4.50;99.90
9768;DHT22;4923;52.520;13.494;2023-12-07T12:06:11;4.50;99.90
9768;DHT22;4923;52.520;13.494;2023-12-07T12:08:58;4.30;99.90
9768;DHT22;4923;52.520;13.494;2023-12-07T12:11:45;4.30;99.90
9768;DHT22;4923;52.520;13.494;2023-12-07T12:14:34;4.30;99.90
9768;DHT22;4923;52.520;13.494;2023-12-07T12:17:21;4.30;99.90
9768;DHT22;4923;52.520;13.494;2023-12-07T12:20:10;4.20;99.90
9768;DHT22;4923;52.520;13.494;2023-12-07T12:23:02;4.20;99.90
9768;DHT22;4923;52.520;13.494;2023-12-07T12:25:49;4.10;99.90
9768;DHT22;4923;52.520;13.494;2023-12-07T12:28:36;4.00;99.90
9768;DHT22;4923;52.520;13.494;2023-12-07T12:31:29;4.00;99.90
9768;DHT22;4923;52.520;13.494;2023-12-07T12:34:16;4.10;99.90
9768;DHT22;4923;52.520;13.494;2023-12-07T12:37:03;4.20;99.90
9768;DHT22;4923;52.520;13.494;2023-12-07T12:39:52;4.10;99.90
9768;DHT22;4923;52.520;13.494;2023-12-07T12:42:39;4.20;99.90
9768;DHT22;4923;52.520;13.494;2023-12-07T12:45:26;4.30;99.90
9768;DHT22;4923;52.520;13.494;2023-12-07T12:48:14;4.40;99.90
9768;DHT22;4923;52.520;13.494;2023-12-07T12:51:07;4.40;99.90
9768;DHT22;4923;52.520;13.494;2023-12-07T12:53:55;4.40;99.90
9768;DHT22;4923;52.520;13.494;2023-12-07T12:56:43;4.30;99.90
9768;DHT22;4923;52.520;13.494;2023-12-07T12:59:31;4.20;99.90
9768;DHT22;4923;52.520;13.494;2023-12-07T13:02:18;4.10;99.90
9768;DHT22;4923;52.520;13.494;2023-12-07T13:05:07;4.00;99.90
9768;DHT22;4923;52.520;13.494;2023-12-07T13:07:54;4.10;99.90
9768;DHT22;4923;52.520;13.494;2023-12-07T13:10:41;4.00;99.90
9768;DHT22;4923;52.520;13.494;2023-12-07T13:13:28;4.00;99.90
9768;DHT22;4923;52.520;13.494;2023-12-07T13:16:15;3.90;99.90
9768;DHT22;4923;52.520;13.494;2023-12-07T13:19:02;3.90;99.90
9768;DHT22;4923;52.520;13.494;2023-12-07T13:21:50;3.90;99.90
9768;DHT22;4923;52.520;13.494;2023-12-07T13:24:38;3.90;99.90
9768;DHT22;4923;52.520;13.494;2023-12-07T13:27:24;3.80;99.90
9768;DHT22;4923;52.520;13.494;2023-12-07T13:30:11;3.60;99.90
9768;DHT22;4923;52.520;13.494;2023-12-07T13:32:59;3.60;99.90
9768;DHT22;4923;52.520;13.494;2023-12-07T13:35:46;3.70;99.90
9768;DHT22;4923;52.520;13.494;2023-12-07T13:38:34;3.80;99.90
9768;DHT22;4923;52.520;13.494;2023-12-07T13:41:21;3.80;99.90
9768;DHT22;4923;52.520;13.494;2023-12-07T13:44:07;3.80;99.90
9768;DHT22;4923;52.520;13.494;2023-12-07T13:46:54;3.70;99.90
9768;DHT22;4923;52.520;13.494;2023-12-07T13:49:42;3.70;99.90
9768;DHT22;4923;52.520;13.494;2023-12-07T13:52:29;3.70;99.90
9768;DHT22;4923;52.520;13.494;2023-12-07T13:55:17;3.60;99.90
9768;DHT22;4923;52.520;13.494;2023-12-07T13:58:04;3.60;99.90
9768;DHT22;4923;52.520;13.494;2023-12-07T14:00:52;3.60;99.90
9768;DHT22;4923;52.520;13.494;2023-12-07T14:03:39;3.60;99.90
9768;DHT22;4923;52.520;13.494;2023-12-07T14:06:25;3.50;99.90
9768;DHT22;4923;52.520;13.494;2023-12-07T14:09:13;3.40;99.90
9768;DHT22;4923;52.520;13.494;2023-12-07T14:12:01;3.20;99.90
9768;DHT22;4923;52.520;13.494;2023-12-07T14:14:48;3.30;99.90
9768;DHT22;4923;52.520;13.494;2023-12-07T14:17:35;3.30;99.90
9768;DHT22;4923;52.520;13.494;2023-12-07T14:20:23;3.20;99.90
9768;DHT22;4923;52.520;13.494;2023-12-07T14:23:13;3.20;99.90
9768;DHT22;4923;52.520;13.494;2023-12-07T14:26:01;3.30;99.90
9768;DHT22;4923;52.520;13.494;2023-12-07T14:28:49;3.20;99.90
9768;DHT22;4923;52.520;13.494;2023-12-07T14:31:36;3.20;99.90
9768;DHT22;4923;52.520;13.494;2023-12-07T14:34:24;3.10;99.90
9768;DHT22;4923;52.520;13.494;2023-12-07T14:37:11;3.20;99.90
9768;DHT22;4923;52.520;13.494;2023-12-07T14:39:58;3.30;99.90
9768;DHT22;4923;52.520;13.494;2023-12-07T14:42:45;3.40;99.90
9768;DHT22;4923;52.520;13.494;2023-12-07T14:45:33;3.40;99.90
9768;DHT22;4923;52.520;13.494;2023-12-07T14:48:20;3.40;99.90
9768;DHT22;4923;52.520;13.494;2023-12-07T14:51:07;3.40;99.90
9768;DHT22;4923;52.520;13.494;2023-12-07T14:53:54;3.40;99.90
9768;DHT22;4923;52.520;13.494;2023-12-07T14:56:41;3.40;99.90
9768;DHT22;4923;52.520;13.494;2023-12-07T14:59:29;3.50;99.90
9768;DHT22;4923;52.520;13.494;2023-12-07T15:02:17;3.50;99.90
9768;DHT22;4923;52.520;13.494;2023-12-07T15:05:05;3.50;99.90
9768;DHT22;4923;52.520;13.494;2023-12-07T15:07:53;3.40;99.90
9768;DHT22;4923;52.520;13.494;2023-12-07T15:10:41;3.40;99.90
9768;DHT22;4923;52.520;13.494;2023-12-07T15:13:28;3.40;99.90
9768;DHT22;4923;52.520;13.494;2023-12-07T15:16:15;3.40;99.90
9768;DHT22;4923;52.520;13.494;2023-12-07T15:19:03;3.30;99.90
9768;DHT22;4923;52.520;13.494;2023-12-07T15:21:50;3.30;99.90
9768;DHT22;4923;52.520;13.494;2023-12-07T15:24:37;3.40;99.90
9768;DHT22;4923;52.520;13.494;2023-12-07T15:27:24;3.40;99.90
9768;DHT22;4923;52.520;13.494;2023-12-07T15:30:11;3.40;99.90
9768;DHT22;4923;52.520;13.494;2023-12-07T15:32:58;3.40;99.90
9768;DHT22;4923;52.520;13.494;2023-12-07T15:35:46;3.50;99.90
9768;DHT22;4923;52.520;13.494;2023-12-07T15:38:33;3.50;99.90
9768;DHT22;4923;52.520;13.494;2023-12-07T15:41:20;3.60;99.90
9768;DHT22;4923;52.520;13.494;2023-12-07T15:44:07;3.50;99.90
9768;DHT22;4923;52.520;13.494;2023-12-07T15:46:54;3.50;99.90
9768;DHT22;4923;52.520;13.494;2023-12-07T15:49:41;3.50;99.90
9768;DHT22;4923;52.520;13.494;2023-12-07T15:52:29;3.40;99.90
9768;DHT22;4923;52.520;13.494;2023-12-07T15:55:16;3.50;99.90
9768;DHT22;4923;52.520;13.494;2023-12-07T15:58:04;3.50;99.90
9768;DHT22;4923;52.520;13.494;2023-12-07T16:00:51;3.40;99.90
9768;DHT22;4923;52.520;13.494;2023-12-07T16:03:38;3.40;99.90
9768;DHT22;4923;52.520;13.494;2023-12-07T16:06:24;3.30;99.90
9768;DHT22;4923;52.520;13.494;2023-12-07T16:09:13;3.30;99.90
9768;DHT22;4923;52.520;13.494;2023-12-07T16:12:00;3.30;99.90
9768;DHT22;4923;52.520;13.494;2023-12-07T16:14:47;3.30;99.90
9768;DHT22;4923;52.520;13.494;2023-12-07T16:17:36;3.30;99.90
9768;DHT22;4923;52.520;13.494;2023-12-07T16:20:22;3.30;99.90
9768;DHT22;4923;52.520;13.494;2023-12-07T16:23:09;3.30;99.90
9768;DHT22;4923;52.520;13.494;2023-12-07T16:25:57;3.20;99.90
9768;DHT22;4923;52.520;13.494;2023-12-07T16:28:44;3.30;99.90
9768;DHT22;4923;52.520;13.494;2023-12-07T16:31:31;3.30;99.90
9768;DHT22;4923;52.520;13.494;2023-12-07T16:34:18;3.30;99.90
9768;DHT22;4923;52.520;13.494;2023-12-07T16:37:06;3.30;99.90
9768;DHT22;4923;52.520;13.494;2023-12-07T16:39:53;3.30;99.90
9768;DHT22;4923;52.520;13.494;2023-12-07T16:42:41;3.30;99.90
9768;DHT22;4923;52.520;13.494;2023-12-07T16:45:28;3.30;99.90
9768;DHT22;4923;52.520;13.494;2023-12-07T16:48:15;3.30;99.90
9768;DHT22;4923;52.520;13.494;2023-12-07T16:51:02;3.30;99.90
9768;DHT22;4923;52.520;13.494;2023-12-07T16:53:49;3.30;99.90
9768;DHT22;4923;52.520;13.494;2023-12-07T16:56:37;3.30;99.90
9768;DHT22;4923;52.520;13.494;2023-12-07T16:59:25;3.30;99.90
9768;DHT22;4923;52.520;13.494;2023-12-07T17:02:12;3.30;99.90
9768;DHT22;4923;52.520;13.494;2023-12-07T17:04:59;3.30;99.90
9768;DHT22;4923;52.520;13.494;2023-12-07T17:07:46;3.30;99.90
9768;DHT22;4923;52.520;13.494;2023-12-07T17:10:33;3.30;99.90
9768;DHT22;4923;52.520;13.494;2023-12-07T17:13:20;3.30;99.90
9768;DHT22;4923;52.520;13.494;2023-12-07T17:16:08;3.30;99.90
9768;DHT22;4923;52.520;13.494;2023-12-07T17:18:55;3.40;99.90
9768;DHT22;4923;52.520;13.494;2023-12-07T17:21:42;3.40;99.90
9768;DHT22;4923;52.520;13.494;2023-12-07T17:24:29;3.40;99.90
9768;DHT22;4923;52.520;13.494;2023-12-07T17:27:16;3.40;99.90
9768;DHT22;4923;52.520;13.494;2023-12-07T17:30:04;3.40;99.90
9768;DHT22;4923;52.520;13.494;2023-12-07T17:32:52;3.40;99.90
9768;DHT22;4923;52.520;13.494;2023-12-07T17:35:39;3.40;99.90
9768;DHT22;4923;52.520;13.494;2023-12-07T17:38:26;3.30;99.90
9768;DHT22;4923;52.520;13.494;2023-12-07T17:41:13;3.30;99.90
9768;DHT22;4923;52.520;13.494;2023-12-07T17:43:59;3.30;99.90
9768;DHT22;4923;52.520;13.494;2023-12-07T17:46:47;3.20;99.90
9768;DHT22;4923;52.520;13.494;2023-12-07T17:49:36;3.20;99.90
9768;DHT22;4923;52.520;13.494;2023-12-07T17:52:23;3.30;99.90
9768;DHT22;4923;52.520;13.494;2023-12-07T17:55:09;3.20;99.90
9768;DHT22;4923;52.520;13.494;2023-12-07T17:57:57;3.30;99.90
9768;DHT22;4923;52.520;13.494;2023-12-07T18:00:44;3.30;99.90
9768;DHT22;4923;52.520;13.494;2023-12-07T18:03:31;3.30;99.90
9768;DHT22;4923;52.520;13.494;2023-12-07T18:06:19;3.30;99.90
9768;DHT22;4923;52.520;13.494;2023-12-07T18:09:06;3.30;99.90
9768;DHT22;4923;52.520;13.494;2023-12-07T18:11:53;3.30;99.90
9768;DHT22;4923;52.520;13.494;2023-12-07T18:14:40;3.30;99.90